createdAt,value
2022-07-25T00:00:13.872Z,20.86
2022-07-25T00:02:40.371Z,20.86
2022-07-25T00:05:07.272Z,20.86
2022-07-25T00:07:33.783Z,20.85
2022-07-25T00:10:00.270Z,20.88
2022-07-25T00:12:27.096Z,20.75
2022-07-25T00:14:53.890Z,20.56
2022-07-25T00:17:20.384Z,20.57
2022-07-25T00:19:46.873Z,20.62
2022-07-25T00:22:13.506Z,20.95
2022-07-25T00:24:40.317Z,20.99
2022-07-25T00:27:07.960Z,21.03
2022-07-25T00:29:34.473Z,21.04
2022-07-25T00:32:00.968Z,21.09
2022-07-25T00:34:27.498Z,21.09
2022-07-25T00:36:54.054Z,20.93
2022-07-25T00:39:20.606Z,20.71
2022-07-25T00:41:47.101Z,20.77
2022-07-25T00:44:27.264Z,20.67
2022-07-25T00:46:53.778Z,20.62
2022-07-25T00:49:20.577Z,20.44
2022-07-25T00:51:47.247Z,20.30
2022-07-25T00:54:13.776Z,20.41
2022-07-25T00:56:40.293Z,20.38
2022-07-25T00:59:06.804Z,20.44
2022-07-25T01:01:33.348Z,20.48
2022-07-25T01:03:59.902Z,20.47
2022-07-25T01:06:29.202Z,20.37
2022-07-25T01:08:55.687Z,20.48
2022-07-25T01:11:22.351Z,20.42
2022-07-25T01:13:48.856Z,20.54
2022-07-25T01:16:15.446Z,20.47
2022-07-25T01:18:42.058Z,20.35
2022-07-25T01:21:08.681Z,20.25
2022-07-25T01:23:35.523Z,20.04
2022-07-25T01:26:02.040Z,19.89
2022-07-25T01:28:28.564Z,19.85
2022-07-25T01:30:55.079Z,19.74
2022-07-25T01:33:21.708Z,19.77
2022-07-25T01:35:48.433Z,19.68
2022-07-25T01:38:14.968Z,19.64
2022-07-25T01:40:41.797Z,19.60
2022-07-25T01:43:08.303Z,19.66
2022-07-25T01:45:35.245Z,19.64
2022-07-25T01:48:01.785Z,19.50
2022-07-25T01:50:28.321Z,19.37
2022-07-25T01:52:54.831Z,19.42
2022-07-25T01:55:21.319Z,19.40
2022-07-25T01:57:49.438Z,19.32
2022-07-25T02:00:16.749Z,19.39
2022-07-25T02:02:43.586Z,19.30
2022-07-25T02:05:10.972Z,19.28
2022-07-25T02:07:37.551Z,19.46
2022-07-25T02:10:05.346Z,19.41
2022-07-25T02:12:31.836Z,19.41
2022-07-25T02:14:58.334Z,19.30
2022-07-25T02:17:24.900Z,19.23
2022-07-25T02:19:51.554Z,19.31
2022-07-25T02:22:18.067Z,19.21
2022-07-25T02:24:44.578Z,19.24
2022-07-25T02:27:11.116Z,19.13
2022-07-25T02:29:37.606Z,19.11
2022-07-25T02:32:04.413Z,19.23
2022-07-25T02:34:30.922Z,19.15
2022-07-25T02:36:57.455Z,19.11
2022-07-25T02:39:25.295Z,19.24
2022-07-25T02:41:51.829Z,19.17
2022-07-25T02:44:18.310Z,19.32
2022-07-25T02:46:44.895Z,19.28
2022-07-25T02:49:13.099Z,19.50
2022-07-25T02:51:39.728Z,19.94
2022-07-25T02:54:06.220Z,20.20
2022-07-25T02:56:33.299Z,20.14
2022-07-25T02:59:02.946Z,20.19
2022-07-25T03:01:39.487Z,20.27
2022-07-25T03:04:06.310Z,20.93
2022-07-25T03:06:33.485Z,21.03
2022-07-25T03:09:00.712Z,21.08
2022-07-25T03:11:27.227Z,21.07
2022-07-25T03:13:53.738Z,21.06
2022-07-25T03:16:20.346Z,21.00
2022-07-25T03:18:46.965Z,20.88
2022-07-25T03:21:13.556Z,20.92
2022-07-25T03:23:40.171Z,20.88
2022-07-25T03:26:06.651Z,20.67
2022-07-25T03:28:33.150Z,20.56
2022-07-25T03:30:59.643Z,20.39
2022-07-25T03:33:26.137Z,20.30
2022-07-25T03:35:52.657Z,20.53
2022-07-25T03:38:19.241Z,20.67
2022-07-25T03:40:45.757Z,20.69
2022-07-25T03:43:12.268Z,20.86
2022-07-25T03:45:39.081Z,20.84
2022-07-25T03:48:05.815Z,21.02
2022-07-25T03:50:32.307Z,21.01
2022-07-25T03:52:58.802Z,21.05
2022-07-25T03:55:25.329Z,21.26
2022-07-25T03:57:51.819Z,21.34
2022-07-25T04:00:18.645Z,21.42
2022-07-25T04:02:45.196Z,21.47
2022-07-25T04:05:11.714Z,21.43
2022-07-25T04:07:38.380Z,21.34
2022-07-25T04:10:05.659Z,21.33
2022-07-25T04:12:32.581Z,21.33
2022-07-25T04:14:59.059Z,21.40
2022-07-25T04:17:25.871Z,21.45
2022-07-25T04:19:52.391Z,21.51
2022-07-25T04:22:19.181Z,21.67
2022-07-25T04:24:45.669Z,21.75
2022-07-25T04:27:12.156Z,21.92
2022-07-25T04:29:38.656Z,22.06
2022-07-25T04:32:06.230Z,22.21
2022-07-25T04:34:32.760Z,22.28
2022-07-25T04:36:59.289Z,22.35
2022-07-25T04:39:25.904Z,22.44
2022-07-25T04:41:52.408Z,22.64
2022-07-25T04:44:18.904Z,22.69
2022-07-25T04:46:45.386Z,22.79
2022-07-25T04:49:11.931Z,22.90
2022-07-25T04:51:38.486Z,22.91
2022-07-25T04:54:05.450Z,22.82
2022-07-25T04:56:32.103Z,22.81
2022-07-25T04:59:03.147Z,22.96
2022-07-25T05:01:32.746Z,23.11
2022-07-25T05:03:59.316Z,23.25
2022-07-25T05:06:26.847Z,23.32
2022-07-25T05:08:53.370Z,23.20
2022-07-25T05:11:19.853Z,23.28
2022-07-25T05:13:46.337Z,23.20
2022-07-25T05:16:12.895Z,23.39
2022-07-25T05:18:39.424Z,23.55
2022-07-25T05:21:05.932Z,23.63
2022-07-25T05:23:32.487Z,23.70
2022-07-25T05:25:59.006Z,23.83
2022-07-25T05:28:25.496Z,23.97
2022-07-25T05:30:52.016Z,24.00
2022-07-25T05:33:18.781Z,24.16
2022-07-25T05:35:45.275Z,24.34
2022-07-25T05:38:11.807Z,24.32
2022-07-25T05:40:38.302Z,24.35
2022-07-25T05:43:04.828Z,24.42
2022-07-25T05:45:31.479Z,24.43
2022-07-25T05:47:57.971Z,24.46
2022-07-25T05:50:24.522Z,24.56
2022-07-25T05:52:51.107Z,24.59
2022-07-25T05:55:17.788Z,24.56
2022-07-25T05:57:44.370Z,24.65
2022-07-25T06:00:11.345Z,24.90
2022-07-25T06:02:38.110Z,24.75
2022-07-25T06:05:05.024Z,24.77
2022-07-25T06:07:31.526Z,24.86
2022-07-25T06:09:58.009Z,25.00
2022-07-25T06:12:24.566Z,25.12
2022-07-25T06:14:51.180Z,25.35
2022-07-25T06:17:18.116Z,25.36
2022-07-25T06:19:44.627Z,25.67
2022-07-25T06:22:11.446Z,25.87
2022-07-25T06:24:38.290Z,26.01
2022-07-25T06:27:04.811Z,26.15
2022-07-25T06:29:31.332Z,26.07
2022-07-25T06:31:57.898Z,26.27
2022-07-25T06:34:28.506Z,26.30
2022-07-25T06:36:55.367Z,26.49
2022-07-25T06:39:21.878Z,26.44
2022-07-25T06:41:48.375Z,26.03
2022-07-25T06:44:14.882Z,25.74
2022-07-25T06:46:41.486Z,25.95
2022-07-25T06:49:08.154Z,26.16
2022-07-25T06:51:34.726Z,26.26
2022-07-25T06:54:01.269Z,26.18
2022-07-25T06:56:31.401Z,26.39
2022-07-25T06:58:58.707Z,26.15
2022-07-25T07:01:25.309Z,26.53
2022-07-25T07:03:51.899Z,26.70
2022-07-25T07:06:18.485Z,26.88
2022-07-25T07:08:44.976Z,26.94
2022-07-25T07:11:15.209Z,27.07
2022-07-25T07:13:41.721Z,27.18
2022-07-25T07:16:08.601Z,27.12
2022-07-25T07:18:35.251Z,27.27
2022-07-25T07:21:01.808Z,27.33
2022-07-25T07:23:29.140Z,27.39
2022-07-25T07:25:55.892Z,27.25
2022-07-25T07:28:22.380Z,27.56
2022-07-25T07:33:35.370Z,27.73
2022-07-25T07:36:02.162Z,27.60
2022-07-25T07:38:28.767Z,27.47
2022-07-25T07:40:55.272Z,27.76
2022-07-25T07:43:25.030Z,27.80
2022-07-25T07:45:56.692Z,27.81
2022-07-25T07:48:23.194Z,28.08
2022-07-25T07:50:49.692Z,28.03
2022-07-25T07:53:16.177Z,27.85
2022-07-25T07:55:45.716Z,27.63
2022-07-25T07:58:15.520Z,27.27
2022-07-25T08:00:42.878Z,27.15
2022-07-25T08:03:09.512Z,27.49
2022-07-25T08:05:41.385Z,27.85
2022-07-25T08:08:09.469Z,27.90
2022-07-25T08:10:38.589Z,28.26
2022-07-25T08:13:15.378Z,28.77
2022-07-25T08:15:42.811Z,29.19
2022-07-25T08:18:16.893Z,29.14
2022-07-25T08:20:45.212Z,29.04
2022-07-25T08:23:11.735Z,29.12
2022-07-25T08:25:38.313Z,29.25
2022-07-25T08:28:06.357Z,29.69
2022-07-25T08:30:33.433Z,29.51
2022-07-25T08:33:01.275Z,29.62
2022-07-25T08:35:27.936Z,29.81
2022-07-25T08:37:54.685Z,30.03
2022-07-25T08:40:22.101Z,30.22
2022-07-25T08:42:48.625Z,30.25
2022-07-25T08:45:19.374Z,30.21
2022-07-25T08:47:46.925Z,30.49
2022-07-25T08:50:15.267Z,30.54
2022-07-25T08:52:45.595Z,30.83
2022-07-25T08:55:16.878Z,30.13
2022-07-25T08:57:43.954Z,29.66
2022-07-25T09:00:12.285Z,29.53
2022-07-25T09:02:38.909Z,28.92
2022-07-25T09:05:05.778Z,29.10
2022-07-25T09:07:36.850Z,29.17
2022-07-25T09:10:26.490Z,29.39
2022-07-25T09:12:54.345Z,29.74
2022-07-25T09:15:29.583Z,30.48
2022-07-25T09:18:01.256Z,30.19
2022-07-25T09:20:38.045Z,30.13
2022-07-25T09:23:04.530Z,30.45
2022-07-25T09:25:31.121Z,30.26
2022-07-25T09:28:17.076Z,30.33
2022-07-25T09:30:54.901Z,30.72
2022-07-25T09:33:22.608Z,30.78
2022-07-25T09:35:49.429Z,30.60
2022-07-25T09:38:16.320Z,30.99
2022-07-25T09:40:52.877Z,31.48
2022-07-25T09:43:19.395Z,31.81
2022-07-25T09:45:52.196Z,31.81
2022-07-25T09:48:19.891Z,32.13
2022-07-25T09:50:46.552Z,32.18
2022-07-25T09:53:13.055Z,32.57
2022-07-25T09:55:39.579Z,32.90
2022-07-25T09:58:06.281Z,32.79
2022-07-25T10:00:33.253Z,32.54
2022-07-25T10:03:26.123Z,32.74
2022-07-25T10:06:06.992Z,32.24
2022-07-25T10:08:39.929Z,32.59
2022-07-25T10:11:13.074Z,32.41
2022-07-25T10:13:39.940Z,32.04
2022-07-25T10:16:24.198Z,32.72
2022-07-25T10:18:55.697Z,33.30
2022-07-25T10:21:26.810Z,33.44
2022-07-25T10:24:07.639Z,33.17
2022-07-25T10:26:41.243Z,32.68
2022-07-25T10:29:10.978Z,32.85
2022-07-25T10:31:38.722Z,32.31
2022-07-25T10:34:13.604Z,32.49
2022-07-25T10:36:47.713Z,32.33
2022-07-25T10:39:15.801Z,32.26
2022-07-25T10:41:56.014Z,32.11
2022-07-25T10:44:22.568Z,31.68
2022-07-25T10:46:50.213Z,31.34
2022-07-25T10:49:31.874Z,31.29
2022-07-25T10:52:00.376Z,31.29
2022-07-25T10:54:32.872Z,31.30
2022-07-25T10:56:59.480Z,31.89
2022-07-25T10:59:36.568Z,31.86
2022-07-25T11:02:07.254Z,32.46
2022-07-25T11:04:34.018Z,32.52
2022-07-25T11:07:11.075Z,32.76
2022-07-25T11:09:37.717Z,32.77
2022-07-25T11:12:04.617Z,33.17
2022-07-25T11:14:33.086Z,33.02
2022-07-25T11:17:22.467Z,32.47
2022-07-25T11:20:01.888Z,32.27
2022-07-25T11:22:28.886Z,31.96
2022-07-25T11:24:57.084Z,32.08
2022-07-25T11:27:28.014Z,32.44
2022-07-25T11:30:07.238Z,33.23
2022-07-25T11:32:43.971Z,33.80
2022-07-25T11:35:11.131Z,34.19
2022-07-25T11:37:38.684Z,33.70
2022-07-25T11:40:06.275Z,32.53
2022-07-25T11:42:40.063Z,31.86
2022-07-25T11:45:16.175Z,31.20
2022-07-25T11:47:42.696Z,31.31
2022-07-25T11:50:14.647Z,31.24
2022-07-25T11:52:45.597Z,31.18
2022-07-25T11:55:17.447Z,31.29
2022-07-25T11:57:46.060Z,31.07
2022-07-25T12:00:20.675Z,31.02
2022-07-25T12:02:47.926Z,31.17
2022-07-25T12:05:21.086Z,31.17
2022-07-25T12:07:51.579Z,31.32
2022-07-25T12:10:21.699Z,30.88
2022-07-25T12:12:51.879Z,30.97
2022-07-25T12:15:25.070Z,30.78
2022-07-25T12:17:52.197Z,30.41
2022-07-25T12:20:20.369Z,30.31
2022-07-25T12:22:47.729Z,30.00
2022-07-25T12:25:14.410Z,29.86
2022-07-25T12:27:41.084Z,29.56
2022-07-25T12:30:08.132Z,29.22
2022-07-25T12:32:34.849Z,29.29
2022-07-25T12:35:01.375Z,29.29
2022-07-25T12:37:27.896Z,29.32
2022-07-25T12:39:55.878Z,29.48
2022-07-25T12:42:22.365Z,29.62
2022-07-25T12:44:48.877Z,29.52
2022-07-25T12:47:15.377Z,29.45
2022-07-25T12:49:41.881Z,29.54
2022-07-25T12:52:08.372Z,29.51
2022-07-25T12:54:34.878Z,29.66
2022-07-25T12:57:01.426Z,29.87
2022-07-25T12:59:27.926Z,30.36
2022-07-25T13:01:54.608Z,31.18
2022-07-25T13:04:21.296Z,32.11
2022-07-25T13:06:47.809Z,32.29
2022-07-25T13:09:14.619Z,33.13
2022-07-25T13:11:42.329Z,33.19
2022-07-25T13:14:08.910Z,32.75
2022-07-25T13:16:37.788Z,31.82
2022-07-25T13:19:05.206Z,31.72
2022-07-25T13:21:31.891Z,31.92
2022-07-25T13:23:58.371Z,31.96
2022-07-25T13:26:24.862Z,31.91
2022-07-25T13:28:59.414Z,31.99
2022-07-25T13:31:26.571Z,31.93
2022-07-25T13:33:53.091Z,30.97
2022-07-25T13:36:19.681Z,30.58
2022-07-25T13:38:47.734Z,30.38
2022-07-25T13:41:15.167Z,31.07
2022-07-25T13:43:43.159Z,31.63
2022-07-25T13:46:09.878Z,32.18
2022-07-25T13:48:37.048Z,32.70
2022-07-25T13:51:03.674Z,33.32
2022-07-25T13:53:30.778Z,32.79
2022-07-25T13:55:58.352Z,32.81
2022-07-25T13:58:25.173Z,32.77
2022-07-25T14:00:51.802Z,32.63
2022-07-25T14:03:18.384Z,31.74
2022-07-25T14:05:44.865Z,31.86
2022-07-25T14:08:11.365Z,32.43
2022-07-25T14:10:38.054Z,32.91
2022-07-25T14:13:04.689Z,33.34
2022-07-25T14:15:31.190Z,33.00
2022-07-25T14:17:58.110Z,32.33
2022-07-25T14:20:24.601Z,32.24
2022-07-25T14:22:51.443Z,32.40
2022-07-25T14:25:17.995Z,32.32
2022-07-25T14:27:45.797Z,32.27
2022-07-25T14:30:12.644Z,32.44
2022-07-25T14:32:39.140Z,32.68
2022-07-25T14:35:06.147Z,32.59
2022-07-25T14:37:33.172Z,32.46
2022-07-25T14:39:59.716Z,32.30
2022-07-25T14:42:26.349Z,32.09
2022-07-25T14:44:52.844Z,31.59
2022-07-25T14:47:19.632Z,31.84
2022-07-25T14:49:46.287Z,31.91
2022-07-25T14:52:12.888Z,31.51
2022-07-25T14:54:39.911Z,31.42
2022-07-25T14:57:07.209Z,31.17
2022-07-25T14:59:33.704Z,31.39
2022-07-25T15:02:00.466Z,31.87
2022-07-25T15:04:27.069Z,31.31
2022-07-25T15:06:53.706Z,30.42
2022-07-25T15:09:20.532Z,30.35
2022-07-25T15:11:47.488Z,30.75
2022-07-25T15:14:13.979Z,30.55
2022-07-25T15:16:40.573Z,30.45
2022-07-25T15:19:18.015Z,29.97
2022-07-25T15:21:45.337Z,29.92
2022-07-25T15:24:11.854Z,30.00
2022-07-25T15:26:38.385Z,29.85
2022-07-25T15:29:09.714Z,29.83
2022-07-25T15:31:36.864Z,29.73
2022-07-25T15:34:04.180Z,29.71
2022-07-25T15:36:30.666Z,29.85
2022-07-25T15:38:57.193Z,29.17
2022-07-25T15:41:23.691Z,28.95
2022-07-25T15:43:50.191Z,29.08
2022-07-25T15:46:17.159Z,29.13
2022-07-25T15:48:43.895Z,28.83
2022-07-25T15:51:10.792Z,28.81
2022-07-25T15:53:37.326Z,29.04
2022-07-25T15:56:04.431Z,28.76
2022-07-25T15:58:31.233Z,28.68
2022-07-25T16:00:57.828Z,28.59
2022-07-25T16:03:24.442Z,28.41
2022-07-25T16:05:51.248Z,28.23
2022-07-25T16:08:17.766Z,28.29
2022-07-25T16:10:44.273Z,28.32
2022-07-25T16:13:10.787Z,28.33
2022-07-25T16:15:37.594Z,28.13
2022-07-25T16:18:04.178Z,27.97
2022-07-25T16:20:31.997Z,27.63
2022-07-25T16:22:59.273Z,27.63
2022-07-25T16:25:26.702Z,27.34
2022-07-25T16:27:53.371Z,27.05
2022-07-25T16:30:20.219Z,26.80
2022-07-25T16:32:46.776Z,26.85
2022-07-25T16:35:13.258Z,26.82
2022-07-25T16:37:40.598Z,26.93
2022-07-25T16:40:08.566Z,26.89
2022-07-25T16:42:35.414Z,26.82
2022-07-25T16:45:02.012Z,26.59
2022-07-25T16:47:28.770Z,26.65
2022-07-25T16:49:55.246Z,26.72
2022-07-25T16:52:23.755Z,26.61
2022-07-25T16:54:50.309Z,26.54
2022-07-25T16:57:16.826Z,26.74
2022-07-25T16:59:43.321Z,26.81
2022-07-25T17:02:09.949Z,26.83
2022-07-25T17:04:37.531Z,26.55
2022-07-25T17:07:04.151Z,26.54
2022-07-25T17:09:30.663Z,26.27
2022-07-25T17:11:57.358Z,26.05
2022-07-25T17:14:29.500Z,26.03
2022-07-25T17:17:00.337Z,25.93
2022-07-25T17:19:26.826Z,25.67
2022-07-25T17:21:53.320Z,25.51
2022-07-25T17:24:19.811Z,25.44
2022-07-25T17:26:46.295Z,25.44
2022-07-25T17:29:13.579Z,25.42
2022-07-25T17:31:40.467Z,25.42
2022-07-25T17:34:07.144Z,24.99
2022-07-25T17:36:33.942Z,24.81
2022-07-25T17:39:00.463Z,24.78
2022-07-25T17:41:26.949Z,24.64
2022-07-25T17:43:53.463Z,24.49
2022-07-25T17:46:20.020Z,24.22
2022-07-25T17:48:46.711Z,23.99
2022-07-25T17:51:13.338Z,23.82
2022-07-25T17:53:39.866Z,23.69
2022-07-25T17:56:07.379Z,23.56
2022-07-25T17:58:34.214Z,23.37
2022-07-25T18:01:01.694Z,23.33
2022-07-25T18:03:29.478Z,23.29
2022-07-25T18:05:55.988Z,23.24
2022-07-25T18:08:27.261Z,23.14
2022-07-25T18:10:53.876Z,23.12
2022-07-25T18:13:21.973Z,23.17
2022-07-25T18:15:50.294Z,23.33
2022-07-25T18:18:20.371Z,23.20
2022-07-25T18:20:47.389Z,23.22
2022-07-25T18:23:13.878Z,23.11
2022-07-25T18:25:40.368Z,23.18
2022-07-25T18:28:06.932Z,23.26
2022-07-25T18:30:33.749Z,23.10
2022-07-25T18:33:00.263Z,22.93
2022-07-25T18:35:26.799Z,22.90
2022-07-25T18:37:53.548Z,22.63
2022-07-25T18:40:20.733Z,22.72
2022-07-25T18:42:47.275Z,22.74
2022-07-25T18:45:13.907Z,22.74
2022-07-25T18:47:40.882Z,22.73
2022-07-25T18:50:07.812Z,22.63
2022-07-25T18:52:37.484Z,22.73
2022-07-25T18:55:06.137Z,22.68
2022-07-25T18:57:32.682Z,22.65
2022-07-25T19:00:02.731Z,22.60
2022-07-25T19:02:29.824Z,22.69
2022-07-25T19:04:56.510Z,22.57
2022-07-25T19:07:23.369Z,22.42
2022-07-25T19:09:49.883Z,22.44
2022-07-25T19:12:16.363Z,22.39
2022-07-25T19:14:42.872Z,22.39
2022-07-25T19:17:09.411Z,22.27
2022-07-25T19:19:35.932Z,22.20
2022-07-25T19:22:02.591Z,22.33
2022-07-25T19:24:29.907Z,22.32
2022-07-25T19:26:57.230Z,22.23
2022-07-25T19:29:23.937Z,22.14
2022-07-25T19:31:50.436Z,22.27
2022-07-25T19:34:16.942Z,22.10
2022-07-25T19:36:45.833Z,22.01
2022-07-25T19:39:12.471Z,22.08
2022-07-25T19:41:42.162Z,22.00
2022-07-25T19:44:12.856Z,21.92
2022-07-25T19:46:39.488Z,21.96
2022-07-25T19:49:06.204Z,21.81
2022-07-25T19:51:33.015Z,21.74
2022-07-25T19:53:59.892Z,21.71
2022-07-25T19:56:26.408Z,21.35
2022-07-25T19:58:52.991Z,21.41
2022-07-25T20:01:19.521Z,21.27
2022-07-25T20:03:46.148Z,21.28
2022-07-25T20:06:12.698Z,21.17
2022-07-25T20:08:40.120Z,21.30
2022-07-25T20:11:07.631Z,21.28
2022-07-25T20:13:34.887Z,21.08
2022-07-25T20:16:03.734Z,20.65
2022-07-25T20:18:30.257Z,20.62
2022-07-25T20:20:56.789Z,20.55
2022-07-25T20:23:23.891Z,20.74
2022-07-25T20:25:50.608Z,20.64
2022-07-25T20:28:17.140Z,20.81
2022-07-25T20:30:43.680Z,20.68
2022-07-25T20:33:10.325Z,20.87
2022-07-25T20:35:37.207Z,20.94
2022-07-25T20:38:03.707Z,21.05
2022-07-25T20:40:36.047Z,21.03
2022-07-25T20:43:04.239Z,21.01
2022-07-25T20:45:30.763Z,21.11
2022-07-25T20:47:57.306Z,21.12
2022-07-25T20:50:23.866Z,21.00
2022-07-25T20:52:50.490Z,21.00
2022-07-25T20:55:17.121Z,21.15
2022-07-25T20:57:48.635Z,21.08
2022-07-25T21:00:16.918Z,21.06
2022-07-25T21:02:43.559Z,21.25
2022-07-25T21:05:10.224Z,21.16
2022-07-25T21:07:36.775Z,21.17
2022-07-25T21:10:03.616Z,21.07
2022-07-25T21:12:32.764Z,20.97
2022-07-25T21:15:01.091Z,21.04
2022-07-25T21:17:27.681Z,21.04
2022-07-25T21:19:54.177Z,21.02
2022-07-25T21:22:20.677Z,21.02
2022-07-25T21:24:49.283Z,20.84
2022-07-25T21:27:16.789Z,20.85
2022-07-25T21:29:43.308Z,20.79
2022-07-25T21:32:09.869Z,20.66
2022-07-25T21:34:36.413Z,20.70
2022-07-25T21:37:02.897Z,20.72
2022-07-25T21:39:29.382Z,20.65
2022-07-25T21:41:55.877Z,20.46
2022-07-25T21:44:22.462Z,20.26
2022-07-25T21:46:50.055Z,20.14
2022-07-25T21:49:42.089Z,20.19
2022-07-25T21:52:13.314Z,20.17
2022-07-25T21:54:40.757Z,19.88
2022-07-25T21:57:07.259Z,19.75
2022-07-25T21:59:43.719Z,19.49
2022-07-25T22:02:10.400Z,19.28
2022-07-25T22:04:36.998Z,19.08
2022-07-25T22:07:03.531Z,18.86
2022-07-25T22:09:30.015Z,18.75
2022-07-25T22:11:56.741Z,18.96
2022-07-25T22:14:23.282Z,18.53
2022-07-25T22:16:50.210Z,18.31
2022-07-25T22:19:20.801Z,18.26
2022-07-25T22:21:48.748Z,18.02
2022-07-25T22:24:15.250Z,17.87
2022-07-25T22:26:41.752Z,17.90
2022-07-25T22:29:08.683Z,17.61
2022-07-25T22:31:35.466Z,17.57
2022-07-25T22:34:02.025Z,17.38
2022-07-25T22:36:28.791Z,17.35
2022-07-25T22:38:55.594Z,17.47
2022-07-25T22:41:22.090Z,17.23
2022-07-25T22:43:57.459Z,17.30
2022-07-25T22:46:26.132Z,17.21
2022-07-25T22:48:52.679Z,17.02
2022-07-25T22:51:19.268Z,16.95
2022-07-25T22:53:46.064Z,16.98
2022-07-25T22:56:12.568Z,16.99
2022-07-25T22:58:39.229Z,17.07
2022-07-25T23:01:05.804Z,17.19
2022-07-25T23:03:33.403Z,17.43
2022-07-25T23:06:00.090Z,17.52
2022-07-25T23:08:26.603Z,17.54
2022-07-25T23:10:53.152Z,17.68
2022-07-25T23:13:19.692Z,17.80
2022-07-25T23:15:51.161Z,17.83
2022-07-25T23:18:18.380Z,18.08
2022-07-25T23:20:44.874Z,17.85
2022-07-25T23:23:11.677Z,17.90
2022-07-25T23:25:38.908Z,18.03
2022-07-25T23:28:05.471Z,17.99
2022-07-25T23:30:36.574Z,18.02
2022-07-25T23:33:06.393Z,18.24
2022-07-25T23:35:32.912Z,18.29
2022-07-25T23:37:59.701Z,18.33
2022-07-25T23:40:26.647Z,18.41
2022-07-25T23:42:54.314Z,18.41
2022-07-25T23:45:21.503Z,18.33
2022-07-25T23:47:48.310Z,18.25
2022-07-25T23:50:15.536Z,18.50
2022-07-25T23:52:42.292Z,18.47
2022-07-25T23:55:09.244Z,18.52
2022-07-25T23:57:35.753Z,18.50
